createdAt,value
2023-03-17T00:01:44.773Z,99.90
2023-03-17T00:04:12.752Z,99.90
2023-03-17T00:06:40.285Z,99.90
2023-03-17T00:09:14.558Z,99.90
2023-03-17T00:11:42.117Z,99.90
2023-03-17T00:14:09.178Z,99.90
2023-03-17T00:16:42.227Z,99.90
2023-03-17T00:19:31.331Z,99.90
2023-03-17T00:21:59.861Z,99.90
2023-03-17T00:24:27.322Z,99.90
2023-03-17T00:26:54.105Z,99.90
2023-03-17T00:29:20.699Z,99.90
2023-03-17T00:31:47.450Z,99.90
2023-03-17T00:34:18.413Z,99.90
2023-03-17T00:36:50.700Z,99.90
2023-03-17T00:39:18.429Z,99.90
2023-03-17T00:44:12.108Z,99.90
2023-03-17T00:46:41.331Z,99.90
2023-03-17T00:51:43.789Z,99.90
2023-03-17T00:54:11.888Z,99.90
2023-03-17T00:56:39.899Z,99.90
2023-03-17T00:59:30.527Z,99.90
2023-03-17T01:01:57.508Z,99.90
2023-03-17T01:04:24.242Z,99.90
2023-03-17T01:06:52.148Z,99.90
2023-03-17T01:09:20.260Z,99.90
2023-03-17T01:11:48.183Z,99.90
2023-03-17T01:14:15.191Z,99.90
2023-03-17T01:16:42.315Z,99.90
2023-03-17T01:19:12.037Z,99.90
2023-03-17T01:21:39.081Z,99.90
2023-03-17T01:24:06.406Z,99.90
2023-03-17T01:26:32.971Z,99.90
2023-03-17T01:28:59.958Z,99.90
2023-03-17T01:31:26.583Z,99.90
2023-03-17T01:33:53.195Z,99.90
2023-03-17T01:36:20.555Z,99.90
2023-03-17T01:38:50.615Z,99.90
2023-03-17T01:41:18.871Z,99.90
2023-03-17T01:43:45.480Z,99.90
2023-03-17T01:46:21.068Z,99.90
2023-03-17T01:48:50.950Z,99.90
2023-03-17T01:51:47.876Z,99.90
2023-03-17T01:54:23.199Z,99.90
2023-03-17T01:56:52.176Z,99.90
2023-03-17T01:59:23.673Z,99.90
2023-03-17T02:01:55.564Z,99.90
2023-03-17T02:04:22.832Z,99.90
2023-03-17T02:06:57.890Z,99.90
2023-03-17T02:09:26.329Z,99.90
2023-03-17T02:11:53.363Z,99.90
2023-03-17T02:14:20.384Z,99.90
2023-03-17T02:16:47.576Z,99.90
2023-03-17T02:19:14.165Z,99.90
2023-03-17T02:21:43.167Z,99.90
2023-03-17T02:24:17.539Z,99.90
2023-03-17T02:26:46.957Z,99.90
2023-03-17T02:29:14.022Z,99.90
2023-03-17T02:31:40.915Z,99.90
2023-03-17T02:34:07.724Z,99.90
2023-03-17T02:36:34.682Z,99.90
2023-03-17T02:39:01.505Z,99.90
2023-03-17T02:41:28.638Z,99.90
2023-03-17T02:43:56.840Z,99.90
2023-03-17T02:46:23.585Z,99.90
2023-03-17T02:48:50.226Z,99.90
2023-03-17T02:51:16.834Z,99.90
2023-03-17T02:53:43.517Z,99.90
2023-03-17T02:56:10.500Z,99.90
2023-03-17T02:58:37.096Z,99.90
2023-03-17T03:01:04.017Z,99.90
2023-03-17T03:03:31.176Z,99.90
2023-03-17T03:05:58.351Z,99.90
2023-03-17T03:08:26.116Z,99.90
2023-03-17T03:10:53.100Z,99.90
2023-03-17T03:13:19.672Z,99.90
2023-03-17T03:15:47.563Z,99.90
2023-03-17T03:18:14.467Z,99.90
2023-03-17T03:20:44.416Z,99.90
2023-03-17T03:23:11.810Z,99.90
2023-03-17T03:25:39.116Z,99.90
2023-03-17T03:28:08.047Z,99.90
2023-03-17T03:30:36.482Z,99.90
2023-03-17T03:33:03.873Z,99.90
2023-03-17T03:35:30.745Z,99.90
2023-03-17T03:37:57.603Z,99.90
2023-03-17T03:40:25.331Z,99.90
2023-03-17T03:42:51.901Z,99.90
2023-03-17T03:45:18.815Z,99.90
2023-03-17T03:47:45.561Z,99.90
2023-03-17T03:50:13.148Z,99.90
2023-03-17T03:52:39.820Z,99.90
2023-03-17T03:55:07.252Z,99.90
2023-03-17T03:57:33.885Z,99.90
2023-03-17T04:00:00.598Z,99.90
2023-03-17T04:02:27.469Z,99.90
2023-03-17T04:04:54.233Z,99.90
2023-03-17T04:07:21.369Z,99.90
2023-03-17T04:09:49.258Z,99.90
2023-03-17T04:12:17.207Z,99.90
2023-03-17T04:14:44.604Z,99.90
2023-03-17T04:17:11.993Z,99.90
2023-03-17T04:19:39.141Z,99.90
2023-03-17T04:22:07.429Z,99.90
2023-03-17T04:24:34.903Z,99.90
2023-03-17T04:27:04.203Z,99.90
2023-03-17T04:29:32.115Z,99.90
2023-03-17T04:31:58.745Z,99.90
2023-03-17T04:34:25.858Z,99.90
2023-03-17T04:36:52.463Z,99.90
2023-03-17T04:39:19.141Z,99.90
2023-03-17T04:41:46.427Z,99.90
2023-03-17T04:44:13.054Z,99.90
2023-03-17T04:46:39.662Z,99.90
2023-03-17T04:49:06.920Z,99.90
2023-03-17T04:51:33.638Z,99.90
2023-03-17T04:54:01.393Z,99.90
2023-03-17T04:56:30.501Z,99.90
2023-03-17T04:58:58.244Z,99.90
2023-03-17T05:01:24.914Z,99.90
2023-03-17T05:03:51.794Z,99.90
2023-03-17T05:06:18.430Z,99.90
2023-03-17T05:08:45.330Z,99.90
2023-03-17T05:11:12.896Z,99.90
2023-03-17T05:13:40.961Z,99.90
2023-03-17T05:16:08.769Z,99.90
2023-03-17T05:18:36.449Z,99.90
2023-03-17T05:21:04.628Z,99.90
2023-03-17T05:23:31.289Z,99.90
2023-03-17T05:25:58.270Z,99.90
2023-03-17T05:28:24.984Z,99.90
2023-03-17T05:30:51.927Z,99.90
2023-03-17T05:33:18.856Z,99.90
2023-03-17T05:35:46.342Z,99.90
2023-03-17T05:38:14.307Z,99.90
2023-03-17T05:40:41.145Z,99.90
2023-03-17T05:43:07.771Z,99.90
2023-03-17T05:45:34.695Z,99.90
2023-03-17T05:48:01.357Z,99.90
2023-03-17T05:50:28.046Z,99.90
2023-03-17T05:52:55.005Z,99.90
2023-03-17T05:55:22.438Z,99.90
2023-03-17T05:57:49.137Z,99.90
2023-03-17T06:00:16.247Z,99.90
2023-03-17T06:02:43.089Z,99.90
2023-03-17T06:05:10.111Z,99.90
2023-03-17T06:07:50.949Z,99.90
2023-03-17T06:10:19.999Z,99.90
2023-03-17T06:12:47.239Z,99.90
2023-03-17T06:15:13.848Z,99.90
2023-03-17T06:17:40.440Z,99.90
2023-03-17T06:20:07.574Z,99.90
2023-03-17T06:22:34.158Z,99.90
2023-03-17T06:25:01.058Z,99.90
2023-03-17T06:27:27.726Z,99.90
2023-03-17T06:29:54.416Z,99.90
2023-03-17T06:32:21.357Z,99.90
2023-03-17T06:34:48.250Z,99.90
2023-03-17T06:37:15.347Z,99.90
2023-03-17T06:39:42.247Z,99.90
2023-03-17T06:42:08.991Z,99.90
2023-03-17T06:44:36.320Z,99.90
2023-03-17T06:47:02.935Z,99.90
2023-03-17T06:49:29.501Z,99.90
2023-03-17T07:24:16.185Z,99.90
2023-03-17T07:26:42.732Z,99.90
2023-03-17T07:29:09.655Z,99.90
2023-03-17T07:31:38.439Z,99.90
2023-03-17T07:34:06.486Z,99.90
2023-03-17T07:36:33.540Z,99.90
2023-03-17T07:39:01.447Z,99.90
2023-03-17T07:41:28.382Z,99.90
2023-03-17T07:43:55.038Z,99.90
2023-03-17T07:46:21.928Z,99.90
2023-03-17T07:48:48.897Z,99.90
2023-03-17T07:51:18.924Z,99.90
2023-03-17T07:53:46.395Z,99.90
2023-03-17T07:56:13.225Z,99.90
2023-03-17T07:58:40.280Z,99.90
2023-03-17T08:01:08.393Z,99.90
2023-03-17T08:03:35.368Z,99.90
2023-03-17T08:08:30.539Z,99.90
2023-03-17T08:11:04.990Z,99.90
2023-03-17T08:13:32.694Z,99.90
2023-03-17T08:15:59.368Z,99.90
2023-03-17T08:18:26.289Z,99.90
2023-03-17T08:20:52.998Z,99.90
2023-03-17T08:23:20.611Z,99.90
2023-03-17T08:25:48.695Z,99.90
2023-03-17T08:57:51.151Z,99.90
2023-03-17T09:00:20.513Z,99.90
2023-03-17T09:02:48.218Z,99.90
2023-03-17T09:05:16.972Z,99.90
2023-03-17T09:07:43.863Z,99.90
2023-03-17T09:10:12.493Z,99.90
2023-03-17T09:12:39.208Z,99.90
2023-03-17T09:15:07.612Z,99.90
2023-03-17T09:17:34.645Z,99.90
2023-03-17T09:20:01.234Z,99.90
2023-03-17T09:22:27.798Z,99.90
2023-03-17T09:24:54.402Z,99.90
2023-03-17T09:27:21.272Z,99.90
2023-03-17T09:29:47.875Z,99.90
2023-03-17T09:32:16.188Z,99.90
2023-03-17T09:34:42.871Z,99.90
2023-03-17T09:37:09.729Z,99.90
2023-03-17T09:39:36.410Z,99.90
2023-03-17T09:42:14.994Z,99.90
2023-03-17T09:44:57.126Z,99.90
2023-03-17T09:48:01.124Z,99.90
2023-03-17T09:50:53.558Z,99.90
2023-03-17T09:53:34.590Z,99.90
2023-03-17T09:56:08.317Z,99.90
2023-03-17T09:58:37.215Z,99.90
2023-03-17T10:01:05.365Z,99.90
2023-03-17T10:03:32.955Z,99.90
2023-03-17T10:06:15.143Z,99.90
2023-03-17T10:08:51.185Z,99.90
2023-03-17T10:11:23.383Z,99.90
2023-03-17T10:14:08.359Z,99.90
2023-03-17T10:17:00.349Z,99.90
2023-03-17T10:19:40.902Z,99.90
2023-03-17T10:22:16.013Z,99.90
2023-03-17T10:24:48.894Z,99.90
2023-03-17T10:27:16.679Z,99.90
2023-03-17T10:29:43.533Z,99.90
2023-03-17T10:32:13.057Z,99.90
2023-03-17T10:34:41.473Z,99.90
2023-03-17T10:37:13.951Z,99.90
2023-03-17T10:39:52.938Z,99.90
2023-03-17T10:42:29.069Z,99.90
2023-03-17T10:45:17.357Z,99.90
2023-03-17T10:47:50.140Z,99.90
2023-03-17T10:50:40.972Z,99.90
2023-03-17T10:53:18.178Z,99.90
2023-03-17T10:55:52.797Z,99.90
2023-03-17T10:58:28.697Z,99.90
2023-03-17T11:01:16.325Z,99.90
2023-03-17T11:03:43.096Z,99.90
2023-03-17T11:06:12.796Z,99.90
2023-03-17T11:08:51.342Z,99.90
2023-03-17T11:11:30.745Z,99.90
2023-03-17T11:14:16.139Z,99.90
2023-03-17T11:17:00.921Z,99.90
2023-03-17T11:19:45.272Z,99.90
2023-03-17T11:22:22.325Z,99.90
2023-03-17T11:25:27.125Z,99.90
2023-03-17T11:28:16.175Z,99.90
2023-03-17T11:31:15.416Z,99.90
2023-03-17T11:34:08.939Z,99.90
2023-03-17T11:36:56.491Z,99.90
2023-03-17T11:39:27.732Z,99.90
2023-03-17T11:42:18.012Z,99.90
2023-03-17T11:45:09.705Z,99.90
2023-03-17T11:47:59.324Z,99.90
2023-03-17T11:50:50.379Z,99.90
2023-03-17T11:53:41.236Z,99.90
2023-03-17T11:56:21.073Z,99.90
2023-03-17T11:59:00.432Z,99.90
2023-03-17T12:01:32.380Z,99.90
2023-03-17T12:04:20.327Z,99.90
2023-03-17T12:06:52.248Z,99.90
2023-03-17T12:09:31.633Z,99.90
2023-03-17T12:11:59.441Z,99.90
2023-03-17T12:14:30.640Z,99.90
2023-03-17T12:17:16.054Z,99.90
2023-03-17T12:19:57.128Z,99.90
2023-03-17T12:22:52.437Z,99.90
2023-03-17T12:25:24.585Z,99.90
2023-03-17T12:28:10.948Z,99.90
2023-03-17T12:30:52.450Z,99.90
2023-03-17T12:33:31.038Z,99.90
2023-03-17T12:35:59.232Z,99.90
2023-03-17T12:38:36.705Z,99.90
2023-03-17T12:41:42.649Z,99.90
2023-03-17T12:45:05.164Z,99.90
2023-03-17T12:48:14.665Z,99.90
2023-03-17T12:50:57.219Z,99.90
2023-03-17T12:53:33.257Z,99.90
2023-03-17T12:56:16.403Z,99.90
2023-03-17T12:58:46.418Z,99.90
2023-03-17T13:01:34.416Z,99.90
2023-03-17T13:04:26.460Z,99.90
2023-03-17T13:06:57.603Z,99.90
2023-03-17T13:09:32.978Z,99.90
2023-03-17T13:12:01.223Z,99.90
2023-03-17T13:14:44.655Z,99.90
2023-03-17T13:17:20.228Z,99.90
2023-03-17T13:20:04.363Z,99.90
2023-03-17T13:22:53.089Z,99.90
2023-03-17T13:25:41.734Z,99.90
2023-03-17T13:28:14.860Z,99.90
2023-03-17T13:31:25.040Z,99.90
2023-03-17T13:33:54.748Z,99.90
2023-03-17T13:36:36.351Z,99.90
2023-03-17T13:39:38.187Z,99.20
2023-03-17T13:42:35.441Z,99.90
2023-03-17T13:45:38.122Z,99.40
2023-03-17T13:48:32.938Z,99.90
2023-03-17T13:51:22.041Z,99.90
2023-03-17T13:53:53.966Z,99.90
2023-03-17T13:56:43.605Z,99.70
2023-03-17T13:59:16.829Z,99.90
2023-03-17T14:01:52.029Z,99.90
2023-03-17T14:04:26.436Z,99.90
2023-03-17T14:06:56.712Z,99.20
2023-03-17T14:09:32.280Z,99.00
2023-03-17T14:12:03.146Z,98.90
2023-03-17T14:14:43.955Z,99.20
2023-03-17T14:17:16.382Z,98.80
2023-03-17T14:20:06.211Z,99.40
2023-03-17T14:22:32.991Z,99.20
2023-03-17T14:25:01.747Z,99.50
2023-03-17T14:27:32.567Z,99.90
2023-03-17T14:30:09.688Z,99.60
2023-03-17T14:32:36.480Z,99.90
2023-03-17T14:35:03.205Z,99.50
2023-03-17T14:37:29.916Z,98.40
2023-03-17T14:39:58.105Z,99.10
2023-03-17T14:42:30.460Z,99.30
2023-03-17T14:45:06.526Z,99.10
2023-03-17T14:47:39.669Z,99.40
2023-03-17T14:50:16.664Z,98.80
2023-03-17T14:52:43.922Z,98.40
2023-03-17T14:55:15.514Z,97.80
2023-03-17T14:57:42.741Z,98.70
2023-03-17T15:00:34.250Z,97.70
2023-03-17T15:03:03.672Z,97.50
2023-03-17T15:05:40.666Z,97.90
2023-03-17T15:08:31.125Z,98.20
2023-03-17T15:10:59.888Z,96.00
2023-03-17T15:13:28.157Z,96.10
2023-03-17T15:15:55.993Z,96.50
2023-03-17T15:18:23.562Z,96.50
2023-03-17T15:20:50.311Z,96.50
2023-03-17T15:23:18.382Z,96.30
2023-03-17T15:25:48.488Z,96.50
2023-03-17T15:28:18.197Z,95.70
2023-03-17T15:30:48.695Z,96.70
2023-03-17T15:33:30.571Z,97.10
2023-03-17T15:35:59.935Z,96.70
2023-03-17T15:38:26.734Z,96.90
2023-03-17T15:40:53.988Z,97.60
2023-03-17T15:43:22.108Z,97.50
2023-03-17T15:45:58.051Z,96.60
2023-03-17T15:48:31.361Z,97.10
2023-03-17T15:51:00.020Z,96.10
2023-03-17T15:53:27.305Z,97.30
2023-03-17T15:55:54.157Z,97.20
2023-03-17T15:58:20.884Z,98.30
2023-03-17T16:00:52.665Z,97.90
2023-03-17T16:03:29.401Z,99.10
2023-03-17T16:05:56.036Z,99.80
2023-03-17T16:08:23.116Z,99.40
2023-03-17T16:10:49.725Z,99.90
2023-03-17T16:13:16.771Z,99.90
2023-03-17T16:15:47.167Z,99.90
2023-03-17T16:18:16.760Z,99.90
2023-03-17T16:20:46.523Z,99.90
2023-03-17T16:23:16.917Z,99.90
2023-03-17T16:25:44.158Z,99.90
2023-03-17T16:28:22.186Z,99.90
2023-03-17T16:30:51.206Z,99.90
2023-03-17T16:33:27.422Z,99.90
2023-03-17T16:35:55.770Z,99.90
2023-03-17T16:38:24.652Z,99.90
2023-03-17T16:40:54.528Z,99.90
2023-03-17T16:43:25.656Z,99.90
2023-03-17T16:45:54.905Z,99.90
2023-03-17T16:48:21.726Z,99.90
2023-03-17T16:50:48.784Z,99.90
2023-03-17T16:53:15.366Z,99.90
2023-03-17T16:55:42.375Z,99.90
2023-03-17T16:58:21.445Z,99.90
2023-03-17T17:00:49.349Z,99.90
2023-03-17T17:03:16.002Z,99.90
2023-03-17T17:05:43.938Z,99.90
2023-03-17T17:08:11.038Z,99.90
2023-03-17T17:10:38.839Z,99.90
2023-03-17T17:13:07.828Z,99.90
2023-03-17T17:15:36.364Z,99.90
2023-03-17T17:18:12.541Z,99.90
2023-03-17T17:20:41.521Z,99.90
2023-03-17T17:23:12.657Z,99.90
2023-03-17T17:25:39.582Z,99.90
2023-03-17T17:28:06.374Z,99.90
2023-03-17T17:30:33.929Z,99.90
2023-03-17T17:33:02.243Z,99.90
2023-03-17T17:35:32.790Z,99.90
2023-03-17T17:38:01.312Z,99.90
2023-03-17T17:52:51.205Z,99.90
2023-03-17T17:55:18.129Z,99.90
2023-03-17T17:57:44.720Z,99.90
2023-03-17T18:00:17.042Z,99.90
2023-03-17T18:02:44.381Z,99.90
2023-03-17T18:05:12.319Z,99.90
2023-03-17T18:07:39.703Z,99.90
2023-03-17T19:39:46.936Z,99.90
2023-03-17T19:42:13.643Z,99.90
2023-03-17T19:44:40.575Z,99.90
2023-03-17T19:49:36.546Z,99.90
2023-03-17T19:52:07.514Z,99.90
2023-03-17T19:54:34.657Z,99.90
2023-03-17T19:57:01.291Z,99.90
2023-03-17T19:59:27.900Z,99.90
2023-03-17T20:06:55.105Z,99.90
2023-03-17T20:09:27.109Z,99.90
2023-03-17T20:11:56.215Z,99.90
2023-03-17T23:26:38.970Z,99.90
2023-03-17T23:29:08.419Z,99.90
2023-03-17T23:31:36.880Z,99.90
2023-03-17T23:34:04.741Z,99.90
2023-03-17T23:36:31.328Z,99.90
2023-03-17T23:38:58.058Z,99.90
2023-03-17T23:41:24.773Z,99.90
2023-03-17T23:43:51.561Z,99.90
2023-03-17T23:46:18.925Z,99.90
2023-03-17T23:48:45.566Z,99.90
2023-03-17T23:51:12.846Z,99.90
2023-03-17T23:53:40.282Z,99.90
2023-03-17T23:56:07.600Z,99.90
2023-03-17T23:58:34.222Z,99.90
